createdAt,value
2022-11-07T00:04:31.831Z,97656.69
2022-11-07T00:07:01.462Z,97648.25
2022-11-07T00:09:31.031Z,97659.31
2022-11-07T00:12:00.471Z,97656.53
2022-11-07T00:14:54.062Z,97663.22
2022-11-07T00:17:23.797Z,97665.69
2022-11-07T00:19:54.243Z,97663.16
2022-11-07T00:22:23.659Z,97665.22
2022-11-07T00:29:27.117Z,97668.97
2022-11-07T00:32:22.415Z,97655.78
2022-11-07T00:34:51.707Z,97663.94
2022-11-07T00:58:14.375Z,97665.56
2022-11-07T01:15:56.518Z,97668.28
2022-11-07T01:23:01.545Z,97661.94
2022-11-07T01:35:27.016Z,97650.72
2022-11-07T01:37:56.245Z,97649.59
2022-11-07T01:40:26.151Z,97652.63
2022-11-07T01:42:54.744Z,97652.06
2022-11-07T01:45:24.790Z,97641.59
2022-11-07T01:47:53.907Z,97638.78
2022-11-07T01:50:24.815Z,97641.38
2022-11-07T01:52:54.622Z,97643.78
2022-11-07T01:55:26.673Z,97639.22
2022-11-07T01:58:02.614Z,97639.22
2022-11-07T02:00:33.507Z,97645.72
2022-11-07T02:03:04.708Z,97644.81
2022-11-07T02:05:36.999Z,97642.78
2022-11-07T02:08:08.393Z,97644.97
2022-11-07T02:10:40.248Z,97640.06
2022-11-07T02:13:21.980Z,97643.81
2022-11-07T02:15:51.117Z,97640.13
2022-11-07T02:18:20.572Z,97652.00
2022-11-07T02:20:50.208Z,97643.34
2022-11-07T02:23:26.680Z,97651.84
2022-11-07T02:25:57.614Z,97658.81
2022-11-07T02:28:29.153Z,97660.72
2022-11-07T02:30:58.257Z,97671.06
2022-11-07T02:33:27.672Z,97671.16
2022-11-07T02:36:23.673Z,97654.94
2022-11-07T02:38:57.644Z,97655.72
2022-11-07T02:41:31.907Z,97655.72
2022-11-07T02:44:30.399Z,97665.97
2022-11-07T02:47:00.283Z,97659.09
2022-11-07T02:49:30.075Z,97649.66
2022-11-07T02:51:59.507Z,97646.19
2022-11-07T02:54:28.666Z,97649.72
2022-11-07T02:56:59.321Z,97648.06
2022-11-07T02:59:30.698Z,97662.84
2022-11-07T03:01:59.785Z,97665.66
2022-11-07T03:04:49.242Z,97666.50
2022-11-07T03:12:19.151Z,97659.53
2022-11-07T03:14:48.078Z,97653.72
2022-11-07T03:17:17.225Z,97662.09
2022-11-07T03:20:57.807Z,97655.34
2022-11-07T03:23:27.026Z,97659.78
2022-11-07T03:25:56.134Z,97660.75
2022-11-07T03:28:27.077Z,97670.28
2022-11-07T03:31:47.318Z,97663.31
2022-11-07T03:34:16.487Z,97677.28
2022-11-07T03:36:51.396Z,97671.75
2022-11-07T03:39:25.624Z,97679.47
2022-11-07T03:42:59.455Z,97686.22
2022-11-07T03:46:34.791Z,97686.66
2022-11-07T03:49:05.392Z,97709.63
2022-11-07T03:51:40.269Z,97711.00
2022-11-07T03:54:13.923Z,97716.22
2022-11-07T03:56:43.054Z,97710.31
2022-11-07T03:59:12.613Z,97720.41
2022-11-07T04:01:42.239Z,97718.91
2022-11-07T04:04:13.205Z,97727.25
2022-11-07T04:07:12.397Z,97732.38
2022-11-07T04:09:41.560Z,97732.97
2022-11-07T04:19:44.271Z,97738.69
2022-11-07T04:22:13.848Z,97736.97
2022-11-07T04:24:46.116Z,97751.75
2022-11-07T04:28:05.109Z,97748.44
2022-11-07T04:30:34.253Z,97743.31
2022-11-07T04:33:03.900Z,97751.81
2022-11-07T04:35:35.199Z,97756.41
2022-11-07T04:38:04.418Z,97750.44
2022-11-07T04:40:33.792Z,97753.81
2022-11-07T04:47:40.764Z,97767.66
2022-11-07T04:50:12.897Z,97760.72
2022-11-07T04:52:44.204Z,97762.50
2022-11-07T04:55:21.172Z,97764.28
2022-11-07T04:57:50.637Z,97769.47
2022-11-07T05:00:34.635Z,97777.09
2022-11-07T05:07:31.386Z,97790.06
2022-11-07T05:14:43.732Z,97779.88
2022-11-07T05:17:15.470Z,97780.72
2022-11-07T05:19:44.614Z,97780.63
2022-11-07T05:25:29.165Z,97802.63
2022-11-07T05:27:58.374Z,97798.41
2022-11-07T05:30:26.624Z,97806.75
2022-11-07T05:32:54.994Z,97799.00
2022-11-07T05:35:23.359Z,97805.84
2022-11-07T05:43:07.779Z,97817.91
2022-11-07T05:45:38.842Z,97822.13
2022-11-07T05:54:08.703Z,97840.03
2022-11-07T06:06:28.532Z,97861.88
2022-11-07T06:08:56.878Z,97861.00
2022-11-07T06:11:25.518Z,97865.28
2022-11-07T06:23:26.958Z,97885.13
2022-11-07T06:30:24.119Z,97899.13
2022-11-07T06:32:52.440Z,97888.34
2022-11-07T06:45:55.025Z,97905.81
2022-11-07T07:06:46.377Z,97905.38
2022-11-07T07:09:14.855Z,97919.03
2022-11-07T07:11:45.615Z,97916.59
2022-11-07T07:15:32.711Z,97910.00
2022-11-07T07:18:10.744Z,97907.41
2022-11-07T07:20:39.742Z,97911.56
2022-11-07T07:27:45.887Z,97929.41
2022-11-07T07:44:02.337Z,97934.38
2022-11-07T07:46:34.551Z,97936.69
2022-11-07T07:58:30.572Z,97921.97
2022-11-07T08:06:00.202Z,97912.69
2022-11-07T08:13:57.220Z,97904.72
2022-11-07T08:18:31.346Z,97900.69
2022-11-07T08:21:52.076Z,97895.78
2022-11-07T08:38:31.212Z,97882.19
2022-11-07T08:59:10.873Z,97872.47
2022-11-07T09:01:56.136Z,97875.03
2022-11-07T09:05:42.578Z,97861.13
2022-11-07T09:13:32.144Z,97870.63
2022-11-07T09:21:45.715Z,97871.66
2022-11-07T09:24:16.368Z,97866.34
2022-11-07T09:26:46.885Z,97867.72
2022-11-07T09:29:44.534Z,97859.53
2022-11-07T09:32:42.781Z,97872.44
2022-11-07T09:35:56.842Z,97869.75
2022-11-07T09:52:23.761Z,97846.78
2022-11-07T09:54:56.928Z,97853.91
2022-11-07T09:57:33.584Z,97852.47
2022-11-07T10:00:11.447Z,97844.91
2022-11-07T10:06:26.509Z,97835.44
2022-11-07T10:22:24.870Z,97812.50
2022-11-07T10:29:26.650Z,97810.16
2022-11-07T10:32:18.353Z,97815.09
2022-11-07T11:01:58.218Z,97787.53
2022-11-07T11:06:25.909Z,97787.59
2022-11-07T11:08:54.423Z,97782.75
2022-11-07T11:11:32.972Z,97787.19
2022-11-07T11:14:06.235Z,97784.59
2022-11-07T11:16:37.493Z,97787.00
2022-11-07T11:19:08.074Z,97775.72
2022-11-07T11:21:40.628Z,97770.53
2022-11-07T11:24:23.546Z,97758.22
2022-11-07T11:26:52.773Z,97757.25
2022-11-07T11:29:28.243Z,97756.78
2022-11-07T11:31:57.167Z,97755.88
2022-11-07T11:34:30.505Z,97759.31
2022-11-07T11:37:05.093Z,97756.25
2022-11-07T11:39:40.982Z,97753.28
2022-11-07T11:42:15.722Z,97751.50
2022-11-07T11:44:45.436Z,97751.41
2022-11-07T11:47:17.606Z,97750.75
2022-11-07T11:49:50.093Z,97746.34
2022-11-07T11:52:19.365Z,97746.69
2022-11-07T11:54:48.273Z,97750.91
2022-11-07T11:57:19.701Z,97749.28
2022-11-07T12:00:12.429Z,97750.22
2022-11-07T12:02:50.204Z,97740.81
2022-11-07T12:05:26.897Z,97750.41
2022-11-07T12:08:02.221Z,97750.59
2022-11-07T12:10:33.488Z,97741.84
2022-11-07T12:13:10.821Z,97746.22
2022-11-07T12:15:49.520Z,97747.34
2022-11-07T12:18:23.854Z,97744.69
2022-11-07T12:21:04.074Z,97751.63
2022-11-07T12:23:52.441Z,97747.31
2022-11-07T12:26:25.908Z,97752.84
2022-11-07T12:29:02.090Z,97739.16
2022-11-07T12:31:44.455Z,97734.50
2022-11-07T12:34:25.281Z,97736.91
2022-11-07T12:37:07.356Z,97741.50
2022-11-07T12:39:48.150Z,97742.59
2022-11-07T12:42:25.424Z,97727.59
2022-11-07T12:45:02.997Z,97731.13
2022-11-07T12:47:42.652Z,97729.28
2022-11-07T12:50:21.125Z,97732.16
2022-11-07T12:53:02.694Z,97727.59
2022-11-07T12:55:37.770Z,97732.53
2022-11-07T12:58:30.066Z,97724.97
2022-11-07T13:01:30.424Z,97728.34
2022-11-07T13:04:09.107Z,97733.44
2022-11-07T13:06:39.764Z,97735.75
2022-11-07T13:09:17.086Z,97739.06
2022-11-07T13:11:50.906Z,97743.25
2022-11-07T13:14:28.781Z,97744.91
2022-11-07T13:17:15.162Z,97740.09
2022-11-07T13:19:45.610Z,97740.66
2022-11-07T13:22:25.493Z,97732.50
2022-11-07T13:25:01.622Z,97736.31
2022-11-07T13:27:37.640Z,97738.03
2022-11-07T13:30:20.566Z,97738.25
2022-11-07T13:32:50.331Z,97743.81
2022-11-07T13:45:54.090Z,97734.97
2022-11-07T13:48:32.321Z,97742.16
2022-11-07T13:51:07.368Z,97731.13
2022-11-07T13:53:39.055Z,97735.91
2022-11-07T14:00:17.399Z,97736.91
2022-11-07T14:07:49.437Z,97735.38
2022-11-07T14:15:38.423Z,97733.31
2022-11-07T14:18:07.535Z,97734.16
2022-11-07T14:20:35.826Z,97735.41
2022-11-07T14:23:32.449Z,97731.81
2022-11-07T14:40:38.502Z,97732.97
2022-11-07T14:43:57.367Z,97738.34
2022-11-07T14:46:27.074Z,97739.38
2022-11-07T14:49:09.287Z,97744.63
2022-11-07T14:56:11.282Z,97743.22
2022-11-07T14:58:39.632Z,97744.25
2022-11-07T15:01:13.774Z,97741.75
2022-11-07T15:05:40.481Z,97755.78
2022-11-07T15:12:51.653Z,97753.63
2022-11-07T15:15:48.360Z,97751.16
2022-11-07T15:18:27.179Z,97762.50
2022-11-07T15:20:59.214Z,97763.47
2022-11-07T15:24:19.483Z,97757.56
2022-11-07T15:31:23.964Z,97762.56
2022-11-07T15:33:52.881Z,97758.34
2022-11-07T15:45:49.064Z,97768.88
2022-11-07T15:48:20.420Z,97774.97
2022-11-07T15:50:49.924Z,97779.22
2022-11-07T15:54:04.132Z,97777.44
2022-11-07T16:01:03.019Z,97785.28
2022-11-07T16:03:33.076Z,97787.00
2022-11-07T16:06:02.561Z,97792.22
2022-11-07T16:08:31.577Z,97787.91
2022-11-07T16:11:02.466Z,97789.66
2022-11-07T16:13:30.879Z,97794.88
2022-11-07T16:16:01.478Z,97800.03
2022-11-07T16:18:52.593Z,97798.28
2022-11-07T16:21:23.073Z,97806.00
2022-11-07T16:23:53.541Z,97804.25
2022-11-07T16:26:27.870Z,97811.22
2022-11-07T16:28:56.562Z,97816.38
2022-11-07T16:31:25.571Z,97821.56
2022-11-07T16:33:54.635Z,97828.50
2022-11-07T16:36:28.919Z,97830.22
2022-11-07T16:45:32.720Z,97841.25
2022-11-07T16:53:24.638Z,97857.53
2022-11-07T16:56:03.390Z,97870.44
2022-11-07T16:58:33.729Z,97851.56
2022-11-07T17:01:05.406Z,97851.59
2022-11-07T17:03:34.747Z,97855.09
2022-11-07T17:06:04.541Z,97852.59
2022-11-07T17:08:36.582Z,97853.41
2022-11-07T17:15:00.276Z,97853.09
2022-11-07T17:17:29.530Z,97860.97
2022-11-07T17:24:51.173Z,97854.44
2022-11-07T17:37:44.568Z,97866.06
2022-11-07T17:50:57.683Z,97880.41
2022-11-07T18:30:16.473Z,97885.28
2022-11-07T18:32:45.966Z,97900.47
2022-11-07T18:35:19.162Z,97890.72
2022-11-07T18:39:02.892Z,97898.22
2022-11-07T18:41:33.924Z,97893.66
2022-11-07T18:44:05.217Z,97902.31
2022-11-07T18:47:29.175Z,97902.34
2022-11-07T18:50:00.550Z,97905.59
2022-11-07T18:52:31.542Z,97898.38
2022-11-07T18:55:04.416Z,97900.41
2022-11-07T19:02:36.598Z,97898.88
2022-11-07T19:23:30.990Z,97917.66
2022-11-07T19:26:27.479Z,97918.53
2022-11-07T19:29:02.777Z,97919.25
2022-11-07T19:36:27.069Z,97906.88
2022-11-07T19:38:59.875Z,97918.59
2022-11-07T19:47:42.933Z,97927.69
2022-11-07T19:50:14.245Z,97928.78
2022-11-07T19:52:44.963Z,97933.69
2022-11-07T19:55:43.996Z,97941.66
2022-11-07T20:05:24.524Z,97955.84
2022-11-07T20:07:57.103Z,97953.91
2022-11-07T20:11:37.572Z,97953.09
2022-11-07T20:14:10.470Z,97944.34
2022-11-07T20:21:57.285Z,97946.66
2022-11-07T20:28:59.319Z,97957.28
2022-11-07T20:31:33.241Z,97958.97
2022-11-07T20:35:24.977Z,97954.03
2022-11-07T20:38:48.723Z,97959.59
2022-11-07T20:41:19.164Z,97960.75
2022-11-07T20:45:06.168Z,97971.53
2022-11-07T20:57:15.660Z,97950.25
2022-11-07T21:04:56.210Z,97955.03
2022-11-07T21:12:18.462Z,97950.06
2022-11-07T21:15:03.608Z,97940.75
2022-11-07T21:17:36.855Z,97950.31
2022-11-07T21:20:08.074Z,97952.81
2022-11-07T21:26:09.821Z,97955.34
2022-11-07T21:28:42.957Z,97957.41
2022-11-07T23:35:45.850Z,97905.53
2022-11-07T23:42:41.385Z,97908.09
2022-11-07T23:45:30.777Z,97907.22
2022-11-07T23:57:12.139Z,97908.16
